createdAt,value
2023-05-12T00:00:19.244Z,100367.91
2023-05-12T00:02:46.841Z,100368.56
2023-05-12T00:05:13.981Z,100363.24
2023-05-12T00:07:40.946Z,100366.45
2023-05-12T00:10:08.237Z,100361.97
2023-05-12T00:12:35.420Z,100363.48
2023-05-12T00:15:03.150Z,100361.73
2023-05-12T00:17:30.541Z,100362.42
2023-05-12T00:19:57.550Z,100362.38
2023-05-12T00:22:24.576Z,100361.70
2023-05-12T00:24:51.828Z,100363.02
2023-05-12T00:27:18.801Z,100366.39
2023-05-12T00:29:46.035Z,100368.39
2023-05-12T00:32:13.132Z,100368.62
2023-05-12T00:34:40.130Z,100372.16
2023-05-12T00:37:07.454Z,100366.79
2023-05-12T00:39:34.511Z,100367.48
2023-05-12T00:42:02.027Z,100366.54
2023-05-12T00:44:29.055Z,100368.19
2023-05-12T00:46:56.341Z,100372.23
2023-05-12T00:49:25.862Z,100370.30
2023-05-12T00:51:55.093Z,100374.67
2023-05-12T00:54:23.110Z,100377.16
2023-05-12T00:56:50.316Z,100377.30
2023-05-12T00:59:17.767Z,100378.82
2023-05-12T01:01:46.742Z,100379.91
2023-05-12T01:04:13.943Z,100383.54
2023-05-12T01:06:49.822Z,100380.23
2023-05-12T01:09:17.576Z,100375.74
2023-05-12T01:11:45.002Z,100377.16
2023-05-12T01:14:12.282Z,100377.66
2023-05-12T01:16:52.304Z,100380.92
2023-05-12T01:19:34.008Z,100381.52
2023-05-12T01:22:01.082Z,100382.93
2023-05-12T01:24:29.575Z,100387.65
2023-05-12T01:26:56.949Z,100385.35
2023-05-12T01:29:24.005Z,100387.73
2023-05-12T01:31:51.072Z,100390.19
2023-05-12T01:34:21.398Z,100387.23
2023-05-12T01:36:51.300Z,100388.72
2023-05-12T01:39:18.674Z,100388.96
2023-05-12T01:41:45.879Z,100389.48
2023-05-12T01:44:12.923Z,100386.96
2023-05-12T01:46:40.072Z,100387.88
2023-05-12T01:49:10.097Z,100390.21
2023-05-12T01:51:37.296Z,100387.30
2023-05-12T01:54:04.680Z,100383.15
2023-05-12T01:56:33.697Z,100386.83
2023-05-12T01:59:01.203Z,100389.02
2023-05-12T02:01:29.095Z,100391.58
2023-05-12T02:03:56.755Z,100393.48
2023-05-12T02:06:24.202Z,100392.05
2023-05-12T02:08:51.308Z,100394.02
2023-05-12T02:11:18.333Z,100397.94
2023-05-12T02:13:45.455Z,100395.23
2023-05-12T02:16:12.797Z,100395.92
2023-05-12T02:18:40.723Z,100397.60
2023-05-12T02:21:07.967Z,100394.67
2023-05-12T02:23:35.018Z,100395.52
2023-05-12T02:26:02.239Z,100395.55
2023-05-12T02:28:29.297Z,100396.73
2023-05-12T02:30:57.132Z,100395.80
2023-05-12T02:33:25.052Z,100398.57
2023-05-12T02:35:52.077Z,100399.15
2023-05-12T02:38:19.345Z,100399.19
2023-05-12T02:40:46.677Z,100399.80
2023-05-12T02:43:14.095Z,100398.27
2023-05-12T02:45:41.655Z,100401.89
2023-05-12T02:48:09.085Z,100403.91
2023-05-12T02:50:36.347Z,100402.70
2023-05-12T02:53:03.559Z,100400.80
2023-05-12T02:55:30.603Z,100401.58
2023-05-12T02:57:57.623Z,100398.86
2023-05-12T03:00:24.858Z,100395.94
2023-05-12T03:02:52.592Z,100399.80
2023-05-12T03:05:19.956Z,100402.16
2023-05-12T03:07:49.468Z,100406.13
2023-05-12T03:10:19.815Z,100415.39
2023-05-12T03:12:47.099Z,100416.56
2023-05-12T03:15:14.333Z,100419.32
2023-05-12T03:17:41.711Z,100415.86
2023-05-12T03:20:09.131Z,100413.81
2023-05-12T03:22:36.675Z,100415.49
2023-05-12T03:25:05.161Z,100420.67
2023-05-12T03:27:36.720Z,100423.15
2023-05-12T03:30:05.866Z,100422.27
2023-05-12T03:32:35.586Z,100424.65
2023-05-12T03:35:02.889Z,100427.08
2023-05-12T03:37:30.287Z,100430.14
2023-05-12T03:39:58.312Z,100430.05
2023-05-12T03:42:25.288Z,100427.93
2023-05-12T03:44:52.632Z,100426.85
2023-05-12T03:47:19.932Z,100427.11
2023-05-12T03:49:47.070Z,100428.73
2023-05-12T03:52:14.738Z,100429.16
2023-05-12T03:54:41.841Z,100427.69
2023-05-12T03:57:08.837Z,100430.45
2023-05-12T03:59:35.865Z,100426.67
2023-05-12T04:02:03.073Z,100424.83
2023-05-12T04:04:30.235Z,100424.94
2023-05-12T04:06:59.927Z,100425.20
2023-05-12T04:09:26.907Z,100425.54
2023-05-12T04:11:53.926Z,100423.48
2023-05-12T04:14:29.033Z,100426.94
2023-05-12T04:17:03.013Z,100429.70
2023-05-12T04:19:29.926Z,100430.73
2023-05-12T04:21:56.983Z,100430.33
2023-05-12T04:24:25.691Z,100430.17
2023-05-12T04:26:52.899Z,100429.67
2023-05-12T04:29:20.641Z,100432.37
2023-05-12T04:31:47.676Z,100435.52
2023-05-12T04:34:14.918Z,100438.60
2023-05-12T04:36:41.956Z,100437.96
2023-05-12T04:39:09.682Z,100438.71
2023-05-12T04:41:37.257Z,100441.39
2023-05-12T04:44:05.354Z,100443.44
2023-05-12T04:46:33.267Z,100441.81
2023-05-12T04:49:00.877Z,100440.19
2023-05-12T04:51:27.898Z,100442.64
2023-05-12T04:53:55.290Z,100447.83
2023-05-12T04:56:22.691Z,100444.51
2023-05-12T04:58:50.032Z,100445.66
2023-05-12T05:01:17.150Z,100446.39
2023-05-12T05:03:44.487Z,100446.47
2023-05-12T05:06:12.073Z,100439.77
2023-05-12T05:08:39.307Z,100439.25
2023-05-12T05:11:06.451Z,100443.73
2023-05-12T05:13:33.473Z,100443.86
2023-05-12T05:16:00.497Z,100447.64
2023-05-12T05:18:29.359Z,100446.11
2023-05-12T05:20:58.771Z,100445.33
2023-05-12T05:23:26.927Z,100448.48
2023-05-12T05:25:54.356Z,100447.61
2023-05-12T05:28:21.512Z,100448.11
2023-05-12T05:30:48.819Z,100444.20
2023-05-12T05:33:15.967Z,100444.55
2023-05-12T05:35:43.222Z,100444.88
2023-05-12T05:38:11.266Z,100442.33
2023-05-12T05:40:51.542Z,100444.73
2023-05-12T05:43:21.021Z,100443.24
2023-05-12T05:45:50.320Z,100440.19
2023-05-12T05:48:18.322Z,100443.92
2023-05-12T05:50:46.800Z,100443.20
2023-05-12T05:53:13.896Z,100444.23
2023-05-12T05:55:41.351Z,100444.59
2023-05-12T05:58:08.837Z,100442.15
2023-05-12T06:00:36.009Z,100444.29
2023-05-12T06:03:03.246Z,100440.98
2023-05-12T06:05:30.981Z,100442.46
2023-05-12T06:07:58.285Z,100443.16
2023-05-12T06:10:25.927Z,100437.10
2023-05-12T06:12:52.967Z,100437.51
2023-05-12T06:15:21.684Z,100434.26
2023-05-12T06:17:50.016Z,100438.02
2023-05-12T06:20:17.593Z,100440.86
2023-05-12T06:22:45.499Z,100439.88
2023-05-12T06:25:16.616Z,100442.42
2023-05-12T06:27:43.632Z,100441.94
2023-05-12T06:30:15.644Z,100439.33
2023-05-12T06:32:43.407Z,100441.86
2023-05-12T06:35:10.835Z,100441.90
2023-05-12T06:37:38.640Z,100442.23
2023-05-12T06:40:06.449Z,100441.07
2023-05-12T06:42:33.475Z,100444.79
2023-05-12T06:45:03.877Z,100443.23
2023-05-12T06:47:32.205Z,100445.67
2023-05-12T06:49:59.256Z,100440.35
2023-05-12T06:52:26.362Z,100442.79
2023-05-12T06:54:53.469Z,100445.21
2023-05-12T06:57:20.663Z,100445.52
2023-05-12T06:59:47.892Z,100443.07
2023-05-12T07:02:14.896Z,100440.11
2023-05-12T07:04:42.070Z,100439.45
2023-05-12T07:07:09.054Z,100438.04
2023-05-12T07:09:36.318Z,100441.73
2023-05-12T07:12:04.228Z,100441.38
2023-05-12T07:14:31.181Z,100441.86
2023-05-12T07:16:58.186Z,100438.91
2023-05-12T07:19:25.283Z,100435.98
2023-05-12T07:21:53.408Z,100442.02
2023-05-12T07:24:20.765Z,100440.45
2023-05-12T07:26:47.815Z,100439.96
2023-05-12T07:29:14.865Z,100443.72
2023-05-12T07:31:42.182Z,100441.91
2023-05-12T07:34:09.475Z,100446.81
2023-05-12T07:37:49.374Z,100445.56
2023-05-12T07:40:16.358Z,100442.42
2023-05-12T07:42:43.340Z,100442.56
2023-05-12T07:45:10.950Z,100446.50
2023-05-12T07:47:37.918Z,100443.16
2023-05-12T07:50:05.588Z,100438.55
2023-05-12T07:52:33.048Z,100434.95
2023-05-12T07:55:00.023Z,100434.56
2023-05-12T07:57:27.168Z,100434.63
2023-05-12T07:59:59.591Z,100436.94
2023-05-12T08:02:26.860Z,100435.55
2023-05-12T08:04:53.960Z,100434.34
2023-05-12T08:07:53.957Z,100433.34
2023-05-12T08:10:21.059Z,100437.48
2023-05-12T08:12:48.092Z,100433.75
2023-05-12T08:15:15.226Z,100435.28
2023-05-12T08:17:42.435Z,100435.11
2023-05-12T08:20:10.904Z,100426.88
2023-05-12T08:22:38.144Z,100427.83
2023-05-12T08:25:06.132Z,100431.38
2023-05-12T08:27:33.136Z,100423.84
2023-05-12T08:30:11.854Z,100420.04
2023-05-12T08:32:39.209Z,100418.90
2023-05-12T08:35:06.675Z,100421.68
2023-05-12T08:37:44.706Z,100420.67
2023-05-12T08:40:18.216Z,100421.63
2023-05-12T08:43:21.510Z,100423.26
2023-05-12T08:45:48.737Z,100418.23
2023-05-12T08:48:15.923Z,100417.96
2023-05-12T08:50:43.531Z,100413.42
2023-05-12T08:53:12.037Z,100414.98
2023-05-12T08:55:50.168Z,100414.07
2023-05-12T08:58:39.996Z,100412.83
2023-05-12T09:01:07.997Z,100415.15
2023-05-12T09:03:35.506Z,100412.10
2023-05-12T09:06:03.763Z,100404.55
2023-05-12T09:08:36.103Z,100402.91
2023-05-12T09:11:03.394Z,100405.91
2023-05-12T09:13:46.352Z,100403.86
2023-05-12T09:16:13.844Z,100402.86
2023-05-12T09:18:57.863Z,100405.84
2023-05-12T09:21:25.443Z,100402.62
2023-05-12T09:24:11.876Z,100406.04
2023-05-12T09:26:49.746Z,100398.42
2023-05-12T09:29:27.818Z,100394.89
2023-05-12T09:31:58.791Z,100391.25
2023-05-12T09:34:30.745Z,100387.77
2023-05-12T09:36:59.245Z,100387.92
2023-05-12T09:39:26.366Z,100391.96
2023-05-12T09:41:54.079Z,100387.25
2023-05-12T09:44:21.667Z,100382.83
2023-05-12T09:46:49.250Z,100387.84
2023-05-12T09:49:26.098Z,100384.95
2023-05-12T09:51:54.333Z,100376.74
2023-05-12T09:54:28.554Z,100380.87
2023-05-12T09:57:02.740Z,100378.16
2023-05-12T09:59:32.846Z,100373.36
2023-05-12T10:02:01.255Z,100370.67
2023-05-12T10:04:29.514Z,100375.92
2023-05-12T10:06:56.547Z,100372.80
2023-05-12T10:09:28.784Z,100368.69
2023-05-12T10:11:56.723Z,100362.15
2023-05-12T10:14:24.132Z,100363.55
2023-05-12T10:16:51.631Z,100366.50
2023-05-12T10:19:19.298Z,100366.91
2023-05-12T10:21:46.440Z,100365.27
2023-05-12T10:24:17.158Z,100362.90
2023-05-12T10:26:44.973Z,100365.17
2023-05-12T10:29:12.639Z,100358.79
2023-05-12T10:31:39.785Z,100361.64
2023-05-12T10:34:07.240Z,100359.79
2023-05-12T10:36:47.608Z,100360.37
2023-05-12T10:39:17.985Z,100357.80
2023-05-12T10:41:44.987Z,100355.53
2023-05-12T10:44:12.359Z,100351.02
2023-05-12T10:46:39.666Z,100348.05
2023-05-12T10:49:06.689Z,100345.67
2023-05-12T10:51:35.069Z,100346.00
2023-05-12T10:54:07.946Z,100345.50
2023-05-12T10:56:39.944Z,100347.02
2023-05-12T10:59:14.895Z,100345.21
2023-05-12T11:01:43.204Z,100345.39
2023-05-12T11:04:15.711Z,100343.84
2023-05-12T11:06:44.995Z,100344.70
2023-05-12T11:09:13.353Z,100343.01
2023-05-12T11:11:41.023Z,100344.23
2023-05-12T11:14:08.601Z,100339.05
2023-05-12T11:16:42.432Z,100342.36
2023-05-12T11:19:09.568Z,100334.54
2023-05-12T11:21:37.327Z,100329.73
2023-05-12T11:24:04.658Z,100334.07
2023-05-12T11:26:31.940Z,100331.27
2023-05-12T11:28:59.226Z,100332.64
2023-05-12T11:31:26.421Z,100334.73
2023-05-12T11:34:12.680Z,100335.13
2023-05-12T11:36:42.585Z,100331.75
2023-05-12T11:39:17.053Z,100329.03
2023-05-12T11:41:45.192Z,100327.42
2023-05-12T11:44:16.148Z,100323.59
2023-05-12T11:47:02.947Z,100318.32
2023-05-12T11:49:30.968Z,100309.16
2023-05-12T11:51:59.065Z,100311.48
2023-05-12T11:54:28.840Z,100309.95
2023-05-12T11:56:56.446Z,100309.73
2023-05-12T11:59:28.291Z,100300.11
2023-05-12T12:01:55.566Z,100305.21
2023-05-12T12:04:40.917Z,100307.98
2023-05-12T12:07:08.642Z,100297.84
2023-05-12T12:09:37.377Z,100295.27
2023-05-12T12:12:05.415Z,100286.37
2023-05-12T12:14:33.112Z,100289.76
2023-05-12T12:17:00.511Z,100287.48
2023-05-12T12:19:28.571Z,100286.98
2023-05-12T12:21:56.235Z,100286.09
2023-05-12T12:24:23.976Z,100281.87
2023-05-12T12:26:51.052Z,100283.31
2023-05-12T12:29:18.463Z,100277.63
2023-05-12T12:31:46.066Z,100280.42
2023-05-12T12:34:13.161Z,100273.20
2023-05-12T12:36:40.402Z,100273.42
2023-05-12T12:39:07.992Z,100273.30
2023-05-12T12:41:35.064Z,100271.02
2023-05-12T12:44:02.714Z,100270.24
2023-05-12T12:46:29.757Z,100264.20
2023-05-12T12:48:58.284Z,100264.77
2023-05-12T12:51:38.545Z,100264.16
2023-05-12T12:54:12.439Z,100267.60
2023-05-12T12:56:39.514Z,100263.89
2023-05-12T12:59:06.582Z,100263.59
2023-05-12T13:01:34.118Z,100260.23
2023-05-12T13:04:01.348Z,100261.65
2023-05-12T13:06:29.428Z,100261.63
2023-05-12T13:08:56.726Z,100255.99
2023-05-12T13:11:23.832Z,100257.40
2023-05-12T13:13:50.810Z,100257.70
2023-05-12T13:16:18.597Z,100257.42
2023-05-12T13:18:46.161Z,100257.63
2023-05-12T13:21:13.050Z,100264.70
2023-05-12T13:23:40.061Z,100262.52
2023-05-12T13:26:07.053Z,100257.21
2023-05-12T13:28:34.070Z,100255.45
2023-05-12T13:31:01.379Z,100262.21
2023-05-12T13:33:28.968Z,100258.95
2023-05-12T13:35:55.938Z,100259.48
2023-05-12T13:38:23.145Z,100259.17
2023-05-12T13:40:50.495Z,100262.28
2023-05-12T13:43:18.533Z,100263.95
2023-05-12T13:45:45.953Z,100258.96
2023-05-12T13:48:13.268Z,100254.82
2023-05-12T13:50:40.358Z,100257.08
2023-05-12T13:53:07.460Z,100252.92
2023-05-12T13:55:40.645Z,100251.89
2023-05-12T13:58:08.049Z,100249.66
2023-05-12T14:00:35.109Z,100245.61
2023-05-12T14:03:02.252Z,100244.33
2023-05-12T14:05:29.613Z,100241.18
2023-05-12T14:07:57.421Z,100235.58
2023-05-12T14:10:24.546Z,100236.98
2023-05-12T14:12:51.642Z,100236.58
2023-05-12T14:17:48.625Z,100236.38
2023-05-12T14:20:16.171Z,100229.59
2023-05-12T14:22:43.244Z,100230.15
2023-05-12T14:25:10.552Z,100230.69
2023-05-12T14:27:37.825Z,100236.02
2023-05-12T14:30:07.546Z,100233.10
2023-05-12T14:32:34.738Z,100233.77
2023-05-12T14:35:01.926Z,100232.92
2023-05-12T14:37:28.980Z,100235.16
2023-05-12T14:39:57.126Z,100235.70
2023-05-12T14:42:24.964Z,100236.15
2023-05-12T14:44:52.024Z,100234.58
2023-05-12T14:47:19.020Z,100238.49
2023-05-12T14:49:46.353Z,100239.77
2023-05-12T14:52:13.406Z,100242.45
2023-05-12T14:54:40.655Z,100240.20
2023-05-12T14:57:08.239Z,100238.88
2023-05-12T14:59:35.881Z,100240.52
2023-05-12T15:02:02.974Z,100239.29
2023-05-12T15:04:30.653Z,100243.27
2023-05-12T15:06:57.705Z,100243.77
2023-05-12T15:09:25.077Z,100241.05
2023-05-12T15:11:52.730Z,100241.39
2023-05-12T15:14:19.729Z,100247.55
2023-05-12T15:16:47.289Z,100244.02
2023-05-12T15:19:15.508Z,100243.45
2023-05-12T15:21:42.920Z,100245.71
2023-05-12T15:24:09.921Z,100237.77
2023-05-12T15:26:39.498Z,100238.23
2023-05-12T15:29:07.453Z,100233.54
2023-05-12T15:31:35.456Z,100236.81
2023-05-12T15:34:03.289Z,100231.07
2023-05-12T15:36:31.147Z,100234.59
2023-05-12T15:38:58.251Z,100232.61
2023-05-12T15:41:25.332Z,100227.24
2023-05-12T15:43:52.442Z,100228.00
2023-05-12T15:46:19.593Z,100227.52
2023-05-12T15:48:48.768Z,100226.23
2023-05-12T15:51:15.781Z,100228.38
2023-05-12T15:53:42.957Z,100229.30
2023-05-12T15:56:09.923Z,100229.95
2023-05-12T15:58:37.338Z,100229.80
2023-05-12T16:01:04.606Z,100229.21
2023-05-12T16:03:32.016Z,100232.11
2023-05-12T16:05:59.132Z,100230.78
2023-05-12T16:08:27.046Z,100234.35
2023-05-12T16:10:54.487Z,100228.23
2023-05-12T16:13:21.541Z,100227.59
2023-05-12T16:15:52.141Z,100232.73
2023-05-12T16:18:19.284Z,100229.59
2023-05-12T16:20:47.597Z,100229.97
2023-05-12T16:23:14.834Z,100235.83
2023-05-12T16:25:42.530Z,100237.63
2023-05-12T16:28:09.528Z,100238.95
2023-05-12T16:30:37.278Z,100236.34
2023-05-12T16:33:04.640Z,100241.20
2023-05-12T16:35:32.071Z,100239.19
2023-05-12T16:37:59.122Z,100244.15
2023-05-12T16:40:26.096Z,100241.98
2023-05-12T16:42:54.933Z,100246.15
2023-05-12T16:45:25.751Z,100248.97
2023-05-12T16:47:53.375Z,100250.33
2023-05-12T16:50:20.543Z,100250.83
2023-05-12T16:52:47.631Z,100253.99
2023-05-12T16:55:14.641Z,100254.71
2023-05-12T16:57:43.376Z,100258.86
2023-05-12T17:00:11.640Z,100260.60
2023-05-12T17:02:39.188Z,100265.14
2023-05-12T17:05:06.960Z,100263.75
2023-05-12T17:07:35.451Z,100265.84
2023-05-12T17:10:02.950Z,100268.33
2023-05-12T17:12:30.109Z,100270.60
2023-05-12T17:15:06.885Z,100271.95
2023-05-12T17:17:35.285Z,100272.50
2023-05-12T17:20:02.770Z,100278.30
2023-05-12T17:22:31.148Z,100274.80
2023-05-12T17:24:58.364Z,100271.20
2023-05-12T17:27:26.004Z,100271.77
2023-05-12T17:29:53.009Z,100273.59
2023-05-12T17:32:19.978Z,100277.31
2023-05-12T17:34:50.378Z,100279.34
2023-05-12T17:37:18.342Z,100280.52
2023-05-12T17:39:46.396Z,100279.81
2023-05-12T17:42:13.441Z,100285.98
2023-05-12T17:44:40.476Z,100284.54
2023-05-12T17:47:07.780Z,100285.65
2023-05-12T17:49:35.316Z,100288.36
2023-05-12T17:52:02.409Z,100293.58
2023-05-12T17:54:29.618Z,100293.34
2023-05-12T17:56:56.642Z,100296.79
2023-05-12T17:59:23.718Z,100295.46
2023-05-12T18:01:51.940Z,100295.38
2023-05-12T18:04:19.563Z,100298.47
2023-05-12T18:06:50.374Z,100299.98
2023-05-12T18:09:18.038Z,100304.34
2023-05-12T18:11:45.109Z,100303.32
2023-05-12T18:14:12.253Z,100302.34
2023-05-12T18:16:39.588Z,100306.61
2023-05-12T18:19:06.771Z,100309.45
2023-05-12T18:21:33.850Z,100313.93
2023-05-12T18:24:01.692Z,100315.77
2023-05-12T18:26:29.806Z,100316.26
2023-05-12T18:28:56.841Z,100317.67
2023-05-12T18:31:23.989Z,100321.59
2023-05-12T18:33:51.290Z,100322.98
2023-05-12T18:36:18.520Z,100325.25
2023-05-12T18:38:46.247Z,100323.73
2023-05-12T18:41:13.351Z,100327.14
2023-05-12T18:43:40.443Z,100333.77
2023-05-12T18:46:07.682Z,100330.92
2023-05-12T18:48:34.984Z,100327.14
2023-05-12T18:51:02.313Z,100329.23
2023-05-12T18:53:29.406Z,100327.20
2023-05-12T18:55:56.854Z,100331.39
2023-05-12T18:58:23.891Z,100331.96
2023-05-12T19:00:50.974Z,100331.45
2023-05-12T19:03:18.556Z,100329.42
2023-05-12T19:05:46.583Z,100329.61
2023-05-12T19:08:13.841Z,100330.71
2023-05-12T19:10:41.371Z,100331.66
2023-05-12T19:13:08.573Z,100331.30
2023-05-12T19:15:36.264Z,100334.75
2023-05-12T19:18:03.534Z,100328.29
2023-05-12T19:20:31.180Z,100329.73
2023-05-12T19:22:59.879Z,100328.80
2023-05-12T19:25:27.280Z,100329.89
2023-05-12T19:27:54.764Z,100328.70
2023-05-12T19:30:21.831Z,100321.86
2023-05-12T19:32:50.308Z,100319.25
2023-05-12T19:35:17.451Z,100319.42
2023-05-12T19:37:44.552Z,100319.59
2023-05-12T19:40:12.549Z,100322.13
2023-05-12T19:42:39.548Z,100322.21
2023-05-12T19:45:07.190Z,100319.79
2023-05-12T19:47:34.502Z,100320.31
2023-05-12T19:50:01.543Z,100315.89
2023-05-12T19:54:13.557Z,100318.88
2023-05-12T19:56:40.580Z,100313.46
2023-05-12T19:59:08.165Z,100309.36
2023-05-12T20:01:35.464Z,100311.92
2023-05-12T20:04:02.957Z,100314.56
2023-05-12T20:06:31.032Z,100313.69
2023-05-12T20:08:57.952Z,100316.30
2023-05-12T20:11:25.225Z,100320.55
2023-05-12T20:13:52.152Z,100321.73
2023-05-12T20:16:19.161Z,100316.84
2023-05-12T20:18:46.929Z,100319.92
2023-05-12T20:21:13.980Z,100317.16
2023-05-12T20:23:41.043Z,100318.64
2023-05-12T20:26:08.579Z,100321.46
2023-05-12T20:28:36.219Z,100323.54
2023-05-12T20:31:03.726Z,100323.20
2023-05-12T20:33:30.802Z,100324.85
2023-05-12T20:35:57.804Z,100325.61
2023-05-12T20:38:25.027Z,100324.17
2023-05-12T20:40:52.314Z,100334.74
2023-05-12T20:43:19.568Z,100334.57
2023-05-12T20:45:46.622Z,100333.84
2023-05-12T20:48:13.879Z,100337.89
2023-05-12T20:50:41.023Z,100340.27
2023-05-12T20:53:08.075Z,100344.33
2023-05-12T20:55:35.581Z,100342.82
2023-05-12T20:58:02.760Z,100339.89
2023-05-12T21:00:29.808Z,100342.62
2023-05-12T21:02:58.226Z,100341.98
2023-05-12T21:05:25.318Z,100341.86
2023-05-12T21:07:52.857Z,100343.20
2023-05-12T21:10:20.422Z,100350.99
2023-05-12T21:12:47.821Z,100358.23
2023-05-12T21:15:14.887Z,100347.84
2023-05-12T21:17:42.207Z,100350.13
2023-05-12T21:20:12.214Z,100346.95
2023-05-12T21:22:40.945Z,100350.66
2023-05-12T21:25:08.481Z,100350.80
2023-05-12T21:27:40.487Z,100349.98
2023-05-12T21:30:08.862Z,100346.65
2023-05-12T21:32:36.345Z,100348.67
2023-05-12T21:35:03.836Z,100347.80
2023-05-12T21:37:30.967Z,100347.70
2023-05-12T21:39:58.018Z,100349.48
2023-05-12T21:42:25.020Z,100348.30
2023-05-12T21:44:52.437Z,100349.33
2023-05-12T21:47:19.421Z,100347.27
2023-05-12T21:49:46.414Z,100347.70
2023-05-12T21:52:13.411Z,100349.48
2023-05-12T21:54:40.416Z,100346.79
2023-05-12T21:57:07.573Z,100343.37
2023-05-12T21:59:34.599Z,100347.33
2023-05-12T22:02:01.562Z,100345.85
2023-05-12T22:04:28.677Z,100346.01
2023-05-12T22:06:56.053Z,100344.95
2023-05-12T22:09:23.336Z,100344.89
2023-05-12T22:11:50.264Z,100346.60
2023-05-12T22:14:17.589Z,100348.02
2023-05-12T22:16:45.135Z,100347.76
2023-05-12T22:19:12.818Z,100347.27
2023-05-12T22:21:40.172Z,100348.60
2023-05-12T22:24:07.584Z,100346.05
2023-05-12T22:26:34.631Z,100345.96
2023-05-12T22:29:01.969Z,100343.52
2023-05-12T22:31:29.070Z,100353.58
2023-05-12T22:33:56.266Z,100354.23
2023-05-12T22:36:23.245Z,100355.70
2023-05-12T22:38:50.459Z,100353.68
2023-05-12T22:41:17.469Z,100357.56
2023-05-12T22:43:44.465Z,100356.19
2023-05-12T22:46:11.618Z,100361.33
2023-05-12T22:48:39.441Z,100361.09
2023-05-12T22:51:07.025Z,100359.27
2023-05-12T22:53:36.274Z,100356.73
2023-05-12T22:56:03.717Z,100354.24
2023-05-12T22:58:31.174Z,100351.08
2023-05-12T23:00:58.538Z,100349.13
2023-05-12T23:03:25.670Z,100347.87
2023-05-12T23:05:53.087Z,100347.31
2023-05-12T23:08:20.110Z,100344.02
2023-05-12T23:10:47.513Z,100344.09
2023-05-12T23:13:14.565Z,100346.95
2023-05-12T23:15:41.850Z,100342.27
2023-05-12T23:18:08.847Z,100340.93
2023-05-12T23:20:35.902Z,100345.71
2023-05-12T23:23:03.320Z,100346.73
2023-05-12T23:25:30.428Z,100349.18
2023-05-12T23:27:57.459Z,100349.27
2023-05-12T23:30:24.651Z,100346.14
2023-05-12T23:32:52.171Z,100346.45
2023-05-12T23:35:20.061Z,100349.45
2023-05-12T23:37:47.034Z,100350.02
2023-05-12T23:40:14.009Z,100346.20
2023-05-12T23:42:41.303Z,100352.02
2023-05-12T23:45:08.913Z,100349.63
2023-05-12T23:47:36.397Z,100347.67
2023-05-12T23:50:03.844Z,100344.61
2023-05-12T23:52:31.052Z,100349.60
2023-05-12T23:54:58.027Z,100348.38
2023-05-12T23:57:25.379Z,100354.83
2023-05-12T23:59:52.616Z,100357.83
